Upper Deerfield Twp, New Jersey
Current Conditions -  °F | °C
As of 5:54 PM on Thursday 23 Oct 2014 (Local Time) from KMIV Reporting Station
Overcast Overcast  
Wind Chill: 55°   Ceiling: 5500
Heat Index: 55°   Visibility: 10mi
Dew Point: 45°   Wind: 14mph
Humidity: 69%   Direction: 320°NW
Pressure: 29.78"   Gusts: 22mph
Location:  39.4433°N, 75.2554°W
Report Text: KMIV 232154Z AUTO 32012G19KT 10SM FEW029 BKN055 OVC080 13/07 A2978 RMK AO2 SLP083 T01280072
Loading
Personal Weather Stations






























Interactive Weather Map
Tropical Storm Tracking
New forecast layout! Learn more

10-Day Weather Forecast

Advertisements
Track Severe Weather on mobile